Terminal Aerodrome Forecast
Issued by NWS

Home | Current Version | Previous Version | Text Only | Print | Product List | Glossary On
Versions: 1 2 3 4 5 6 7 8 9 10 11 12 13 14
000
FTUS44 KLIX 281720
TAFMSY
TAF
KMSY 281720Z 2818/2918 24008KT P6SM VCTS SCT026CB SCT250
     FM290000 19004KT P6SM SCT100 BKN250
     FM290900 00000KT P6SM FEW080 FEW250=

USA.gov is the U.S. government's official web portal to all federal, state and local government web resources and services.